Time;durP1;ratioP1;P1;durP2;ratioP2;P2;SDS_P1;SDS_P2;PMS_P1;PMS_P2;Temp;Humidity;BMP_temperature;BMP_pressure;BME280_temperature;BME280_humidity;BME280_pressure;Samples;Min_cycle;Max_cycle;Signal;HPM_P1;HPM_P2
2022/09/12 04:00:13;;;;;;;1.47;1.47;;;12.00;99.90;;;;;;6062070;23;21725;31
2022/09/12 04:02:41;;;;;;;1.73;1.60;;;12.00;99.90;;;;;;4950694;28;20277;-69
2022/09/12 04:05:08;;;;;;;2.30;2.30;;;12.00;99.90;;;;;;4952878;28;20572;-69
2022/09/12 04:07:35;;;;;;;2.38;2.17;;;12.00;99.90;;;;;;4952719;28;20217;-67
2022/09/12 04:10:02;;;;;;;1.65;1.45;;;12.00;99.90;;;;;;4953317;28;20213;-67
2022/09/12 04:12:29;;;;;;;2.42;2.30;;;12.00;99.90;;;;;;4952193;28;20243;-67
2022/09/12 04:14:56;;;;;;;1.33;1.33;;;12.00;99.90;;;;;;4953157;29;20224;-67
2022/09/12 04:17:23;;;;;;;1.75;1.75;;;12.00;99.90;;;;;;4952522;29;20678;-68
2022/09/12 04:19:51;;;;;;;1.90;1.90;;;12.10;99.90;;;;;;4952624;29;20210;-67
2022/09/12 04:22:17;;;;;;;1.90;1.90;;;12.10;99.90;;;;;;4952133;29;20247;-67
2022/09/12 04:24:44;;;;;;;2.05;2.05;;;12.10;99.90;;;;;;4952622;29;20214;-68
2022/09/12 04:27:11;;;;;;;1.73;1.73;;;12.10;99.90;;;;;;4948736;29;20215;-67
2022/09/12 04:29:37;;;;;;;3.60;1.48;;;12.10;99.90;;;;;;4941497;28;20648;-68
2022/09/12 04:32:04;;;;;;;2.95;2.13;;;12.20;99.90;;;;;;4940201;28;20268;-68
2022/09/12 04:34:31;;;;;;;1.85;1.75;;;12.20;99.90;;;;;;4947350;28;20237;-66
2022/09/12 04:36:59;;;;;;;1.50;1.40;;;12.20;99.90;;;;;;4947370;29;20203;-67
2022/09/12 04:39:26;;;;;;;1.42;1.33;;;12.20;99.90;;;;;;4952450;28;20598;-69
2022/09/12 04:41:53;;;;;;;1.88;1.88;;;12.20;99.90;;;;;;4951122;28;20236;-68
2022/09/12 04:44:20;;;;;;;1.40;1.40;;;12.20;99.90;;;;;;4944403;28;20224;-67
2022/09/12 04:46:47;;;;;;;1.92;1.92;;;12.10;99.90;;;;;;4952764;28;20210;-68
2022/09/12 04:49:18;;;;;;;2.50;2.30;;;12.10;99.90;;;;;;4952716;28;20588;-67
2022/09/12 04:51:45;;;;;;;1.30;1.30;;;12.10;99.90;;;;;;4952288;28;20338;-67
2022/09/12 04:54:15;;;;;;;1.70;1.70;;;12.10;99.90;;;;;;4950815;28;20648;-68
2022/09/12 04:56:44;;;;;;;1.45;1.45;;;12.10;99.90;;;;;;4944876;29;20210;-67
2022/09/12 04:59:12;;;;;;;1.75;1.65;;;12.10;99.90;;;;;;4952593;28;20212;-68
2022/09/12 05:01:40;;;;;;;1.90;1.85;;;12.10;99.90;;;;;;4952364;28;20741;-67
2022/09/12 05:04:07;;;;;;;1.85;1.75;;;12.00;99.90;;;;;;4952224;28;20213;-67
2022/09/12 05:06:36;;;;;;;2.03;2.00;;;12.00;99.90;;;;;;4952313;28;20216;-67
2022/09/12 05:09:04;;;;;;;2.15;2.05;;;12.00;99.90;;;;;;4949752;28;20207;-67
2022/09/12 05:11:35;;;;;;;2.40;2.40;;;12.00;99.90;;;;;;4947301;28;20559;-67
2022/09/12 05:14:02;;;;;;;1.70;1.60;;;12.00;99.90;;;;;;4946425;29;20650;-68
2022/09/12 05:16:30;;;;;;;1.92;1.83;;;12.00;99.90;;;;;;4949662;28;20669;-67
2022/09/12 05:18:57;;;;;;;1.95;1.95;;;12.00;99.90;;;;;;4952018;28;20212;-67
2022/09/12 05:21:24;;;;;;;2.55;2.35;;;12.00;99.90;;;;;;4952233;28;20294;-68
2022/09/12 05:23:52;;;;;;;2.10;2.00;;;12.00;99.90;;;;;;4950615;28;20212;-68
2022/09/12 05:26:20;;;;;;;2.35;1.88;;;12.00;99.90;;;;;;4943868;28;20208;-68
2022/09/12 05:28:49;;;;;;;2.22;2.13;;;12.00;99.90;;;;;;4932654;29;20218;-66
2022/09/12 05:31:18;;;;;;;2.10;2.10;;;12.10;99.90;;;;;;4933259;29;20234;-67
2022/09/12 05:33:47;;;;;;;1.83;1.83;;;12.10;99.90;;;;;;4932676;29;20244;-67
2022/09/12 05:36:16;;;;;;;2.20;2.10;;;12.10;99.90;;;;;;4933072;29;20220;-70
2022/09/12 05:38:43;;;;;;;2.58;2.35;;;12.10;99.90;;;;;;4932833;29;20218;-67
2022/09/12 05:41:11;;;;;;;1.73;1.65;;;12.20;99.90;;;;;;4945895;28;20226;-68
2022/09/12 05:43:41;;;;;;;2.45;2.35;;;12.20;99.90;;;;;;4945940;28;20202;-69
2022/09/12 05:46:13;;;;;;;2.35;2.25;;;12.20;99.90;;;;;;4942800;28;20235;-67
2022/09/12 05:48:41;;;;;;;2.63;2.53;;;12.30;99.90;;;;;;4945038;29;20212;-68
2022/09/12 05:51:10;;;;;;;2.10;2.10;;;12.30;99.90;;;;;;4953553;28;20711;-69
2022/09/12 05:53:37;;;;;;;1.95;1.95;;;12.30;99.90;;;;;;4955544;28;20579;-68
2022/09/12 05:56:07;;;;;;;2.13;2.03;;;12.30;99.90;;;;;;4955531;28;20228;-68
2022/09/12 05:58:34;;;;;;;1.80;1.80;;;12.30;99.90;;;;;;4945855;28;20725;-68
2022/09/12 06:01:02;;;;;;;2.00;2.00;;;12.40;99.90;;;;;;4939659;29;20248;-67
2022/09/12 06:03:30;;;;;;;1.70;1.60;;;12.40;99.90;;;;;;4938906;29;20243;-67
2022/09/12 06:05:57;;;;;;;2.83;2.72;;;12.50;99.90;;;;;;4939522;29;20218;-67
2022/09/12 06:08:24;;;;;;;3.00;2.90;;;12.50;99.90;;;;;;4937867;29;20225;-68
2022/09/12 06:10:51;;;;;;;2.17;2.10;;;12.50;99.90;;;;;;4938762;29;20234;-69
2022/09/12 06:13:17;;;;;;;2.15;2.10;;;12.60;99.90;;;;;;4944587;28;20233;-68
2022/09/12 06:15:44;;;;;;;2.65;2.55;;;12.60;99.90;;;;;;4946777;29;20207;-70
2022/09/12 06:18:11;;;;;;;1.60;1.60;;;12.70;99.90;;;;;;4939168;29;20211;-68
2022/09/12 06:20:39;;;;;;;1.80;1.80;;;12.80;99.90;;;;;;4938672;29;20831;-69
2022/09/12 06:23:06;;;;;;;2.53;2.43;;;12.80;99.90;;;;;;4937140;29;20460;-68
2022/09/12 06:25:32;;;;;;;2.05;2.03;;;12.90;99.90;;;;;;4938571;29;20773;-69
2022/09/12 06:28:00;;;;;;;2.07;2.07;;;12.90;99.90;;;;;;4938723;29;20218;-69
2022/09/12 06:30:26;;;;;;;3.13;2.93;;;13.00;99.90;;;;;;4944750;28;20495;-68
2022/09/12 06:32:55;;;;;;;2.87;2.77;;;13.00;99.90;;;;;;4944359;28;20491;-68
2022/09/12 06:35:22;;;;;;;1.60;1.60;;;13.10;99.90;;;;;;4938308;29;20579;-69
2022/09/12 06:37:50;;;;;;;1.80;1.80;;;13.20;99.90;;;;;;4939501;29;20467;-68
2022/09/12 06:40:17;;;;;;;2.70;2.70;;;13.20;99.90;;;;;;4953482;29;20485;-68
2022/09/12 06:42:44;;;;;;;2.80;2.70;;;13.30;99.90;;;;;;4951992;29;20471;-66
2022/09/12 06:45:11;;;;;;;2.83;2.70;;;13.40;99.90;;;;;;4959198;28;20476;-68
2022/09/12 06:47:38;;;;;;;2.20;2.20;;;13.50;99.90;;;;;;4948248;28;20467;-69
2022/09/12 06:50:05;;;;;;;2.33;2.30;;;13.50;99.90;;;;;;4948890;28;20507;-68
2022/09/12 06:52:32;;;;;;;2.33;2.23;;;13.50;99.90;;;;;;4954007;29;20533;-65
2022/09/12 06:55:00;;;;;;;2.40;2.37;;;13.70;99.90;;;;;;4949617;28;20476;-68
2022/09/12 06:57:29;;;;;;;2.80;2.70;;;13.70;99.90;;;;;;4935506;29;21174;-67
2022/09/12 06:59:55;;;;;;;2.60;2.50;;;13.80;99.90;;;;;;4940732;28;20478;-69
2022/09/12 07:02:24;;;;;;;1.87;1.87;;;13.90;99.90;;;;;;4946024;28;20495;-69
2022/09/12 07:04:51;;;;;;;2.80;2.60;;;14.00;99.90;;;;;;4935348;29;20474;-67
2022/09/12 07:07:17;;;;;;;2.07;2.03;;;14.10;99.90;;;;;;4935721;29;20578;-68
2022/09/12 07:09:44;;;;;;;2.87;2.73;;;14.10;99.90;;;;;;4935831;29;20995;-68
2022/09/12 07:12:12;;;;;;;2.63;2.57;;;14.20;99.90;;;;;;4935222;29;21031;-70
2022/09/12 07:14:39;;;;;;;2.37;2.27;;;14.30;99.90;;;;;;4935396;29;20495;-69
2022/09/12 07:17:06;;;;;;;2.37;2.27;;;14.40;99.90;;;;;;4939891;28;20472;-69
2022/09/12 07:19:33;;;;;;;2.20;2.10;;;14.50;99.90;;;;;;4943681;29;20559;-70
2022/09/12 07:22:00;;;;;;;2.37;2.27;;;14.50;99.90;;;;;;4941551;28;20502;-70
2022/09/12 07:24:27;;;;;;;1.70;1.70;;;14.60;99.90;;;;;;4944445;28;21104;-70
2022/09/12 07:26:54;;;;;;;2.67;2.50;;;14.70;99.90;;;;;;4935566;29;20468;-70
2022/09/12 07:29:22;;;;;;;2.30;2.10;;;14.80;99.90;;;;;;4936086;29;20546;-70
2022/09/12 07:31:48;;;;;;;2.33;2.20;;;14.90;99.90;;;;;;4935661;28;20493;-70
2022/09/12 07:34:16;;;;;;;2.73;2.67;;;15.00;99.90;;;;;;4945540;29;20492;-71
2022/09/12 07:36:43;;;;;;;3.00;2.90;;;15.00;99.90;;;;;;4936075;29;20473;-71
2022/09/12 07:39:09;;;;;;;1.93;1.90;;;15.10;99.90;;;;;;4941514;28;20469;-70
2022/09/12 07:41:36;;;;;;;9.93;3.10;;;15.20;99.90;;;;;;4943555;29;20496;-69
2022/09/12 07:44:05;;;;;;;1.73;1.73;;;15.30;99.90;;;;;;4935388;29;20465;-69
2022/09/12 07:46:34;;;;;;;3.03;2.57;;;15.50;99.90;;;;;;4936161;29;20462;-68
2022/09/12 07:49:01;;;;;;;2.40;2.30;;;15.50;99.90;;;;;;4935940;29;20483;-68
2022/09/12 07:51:30;;;;;;;2.83;2.73;;;15.70;99.90;;;;;;4935784;28;20499;-67
2022/09/12 07:53:57;;;;;;;2.43;2.40;;;15.70;99.90;;;;;;4945169;29;20839;-69
2022/09/12 07:56:26;;;;;;;2.03;1.90;;;15.80;99.90;;;;;;4937710;28;20493;-68
2022/09/12 07:58:52;;;;;;;2.87;2.77;;;15.90;99.90;;;;;;4934953;29;20470;-69
2022/09/12 08:01:21;;;;;;;4.03;2.80;;;16.10;99.90;;;;;;4935059;29;20522;-69
2022/09/12 08:03:53;;;;;;;2.83;2.73;;;16.10;99.90;;;;;;4935136;29;20465;-68
2022/09/12 08:06:22;;;;;;;2.60;2.57;;;16.20;99.90;;;;;;4941238;28;20482;-69
2022/09/12 08:08:50;;;;;;;2.23;2.23;;;16.20;99.90;;;;;;4946604;28;20461;-69
2022/09/12 08:11:18;;;;;;;2.80;2.70;;;16.30;99.90;;;;;;4953440;28;20539;-69
2022/09/12 08:13:46;;;;;;;2.30;2.23;;;16.50;99.90;;;;;;4952562;28;20518;-69
2022/09/12 08:16:14;;;;;;;1.70;1.70;;;16.60;99.90;;;;;;4943403;28;20474;-70
2022/09/12 08:18:42;;;;;;;1.50;1.50;;;16.80;99.90;;;;;;4933862;29;20464;-69
2022/09/12 08:21:14;;;;;;;2.43;2.23;;;16.80;99.90;;;;;;4934560;29;20573;-70
2022/09/12 08:23:41;;;;;;;2.27;2.27;;;17.00;99.90;;;;;;4938671;28;20805;-70
2022/09/12 08:26:08;;;;;;;3.07;2.97;;;17.10;99.90;;;;;;4938439;28;20470;-69
2022/09/12 08:28:35;;;;;;;2.30;2.30;;;17.20;99.90;;;;;;4933822;29;20494;-70
2022/09/12 08:31:03;;;;;;;2.33;2.33;;;17.20;99.90;;;;;;4934350;29;20546;-69
2022/09/12 08:33:32;;;;;;;2.40;2.30;;;17.40;99.90;;;;;;4933861;29;20496;-69
2022/09/12 08:36:04;;;;;;;2.20;2.10;;;17.50;99.90;;;;;;4934511;29;20889;-70
2022/09/12 08:38:33;;;;;;;2.17;2.07;;;17.70;99.90;;;;;;4936356;28;20478;-69
2022/09/12 08:41:04;;;;;;;2.23;2.10;;;17.80;99.90;;;;;;4945680;28;20807;-69
2022/09/12 08:43:45;;;;;;;2.43;2.43;;;17.90;99.90;;;;;;4944920;28;20466;-70
2022/09/12 08:46:16;;;;;;;2.00;1.80;;;18.00;99.90;;;;;;4953305;28;20482;-69
2022/09/12 08:48:46;;;;;;;2.50;2.40;;;18.00;99.90;;;;;;4953078;28;20475;-70
2022/09/12 08:51:17;;;;;;;2.33;2.33;;;18.10;99.90;;;;;;4953290;28;20502;-69
2022/09/12 08:53:46;;;;;;;2.10;2.10;;;18.20;99.90;;;;;;4952261;28;20523;-68
2022/09/12 08:56:14;;;;;;;1.77;1.77;;;18.30;99.90;;;;;;4951144;28;20475;-70
2022/09/12 08:58:42;;;;;;;1.93;1.93;;;18.40;99.90;;;;;;4933491;29;20464;-69
2022/09/12 09:01:14;;;;;;;1.70;1.70;;;18.40;99.90;;;;;;4933383;29;20861;-69
2022/09/12 09:03:55;;;;;;;2.13;2.03;;;18.40;99.90;;;;;;4948019;28;20761;-69
2022/09/12 09:06:35;;;;;;;1.40;1.40;;;18.60;99.90;;;;;;4944866;28;20463;-69
2022/09/12 09:09:10;;;;;;;1.23;1.23;;;18.70;99.90;;;;;;4952146;28;20474;-70
2022/09/12 09:11:51;;;;;;;1.13;1.13;;;18.70;99.90;;;;;;4952696;28;20490;-69
2022/09/12 09:14:47;;;;;;;1.30;1.30;;;18.80;99.90;;;;;;4952538;28;20491;-70
2022/09/12 09:17:22;;;;;;;1.17;1.17;;;19.00;99.90;;;;;;4951336;28;20869;-68
2022/09/12 09:19:55;;;;;;;1.47;1.47;;;19.00;99.90;;;;;;4946242;29;20474;-70
2022/09/12 09:22:34;;;;;;;2.10;1.80;;;19.00;99.90;;;;;;4952117;28;20492;-70
2022/09/12 09:25:07;;;;;;;1.87;1.77;;;19.10;99.90;;;;;;4953008;28;20510;-69
2022/09/12 09:27:41;;;;;;;1.90;1.90;;;19.30;99.90;;;;;;4953429;28;20495;-70
2022/09/12 09:30:14;;;;;;;1.10;1.10;;;19.30;99.90;;;;;;4957085;28;20471;-70
2022/09/12 09:32:42;;;;;;;2.40;2.17;;;19.40;99.90;;;;;;4950906;28;20529;-68
2022/09/12 09:35:16;;;;;;;1.20;1.20;;;19.40;99.90;;;;;;4945288;29;20524;-68
2022/09/12 09:37:52;;;;;;;1.73;1.73;;;19.60;99.90;;;;;;4936777;29;20468;-69
2022/09/12 09:40:24;;;;;;;1.27;1.27;;;19.70;99.90;;;;;;4938390;29;20486;-68
2022/09/12 09:42:58;;;;;;;1.30;1.30;;;19.70;99.90;;;;;;4937852;29;20839;-70
2022/09/12 09:45:28;;;;;;;1.87;1.87;;;19.70;99.90;;;;;;4937201;29;20465;-68
2022/09/12 09:48:00;;;;;;;2.00;1.90;;;19.80;99.90;;;;;;4937143;29;20469;-69
2022/09/12 09:50:28;;;;;;;0.90;0.90;;;19.80;99.90;;;;;;4950126;28;20560;-69
2022/09/12 09:52:57;;;;;;;0.67;0.67;;;19.90;99.90;;;;;;4946756;29;20546;-69
2022/09/12 09:55:30;;;;;;;1.80;1.00;;;19.90;99.90;;;;;;4938445;28;20489;-69
2022/09/12 09:57:57;;;;;;;0.90;0.90;;;19.90;99.90;;;;;;4936337;29;20524;-68
2022/09/12 10:00:29;;;;;;;1.27;1.27;;;19.90;99.90;;;;;;4936391;29;20470;-70
2022/09/12 10:03:06;;;;;;;1.30;1.20;;;20.00;99.90;;;;;;4935949;29;20553;-69
2022/09/12 10:05:37;;;;;;;0.80;0.80;;;20.20;99.90;;;;;;4943637;28;20488;-70
2022/09/12 10:08:07;;;;;;;0.57;0.57;;;20.40;99.90;;;;;;4948382;29;20494;-69
2022/09/12 10:10:35;;;;;;;0.50;0.50;;;20.50;99.90;;;;;;4954676;29;20468;-71
2022/09/12 10:13:10;;;;;;;0.83;0.83;;;20.60;99.90;;;;;;4954887;28;20485;-71
2022/09/12 10:15:37;;;;;;;1.70;0.97;;;20.70;99.90;;;;;;4950555;28;21078;-70
2022/09/12 10:18:04;;;;;;;1.07;1.07;;;20.70;99.90;;;;;;4935710;29;20473;-67
2022/09/12 10:20:33;;;;;;;1.10;1.10;;;20.80;99.90;;;;;;4935977;29;20482;-67
2022/09/12 10:23:02;;;;;;;0.97;0.97;;;20.80;99.90;;;;;;4945954;28;20474;-68
2022/09/12 10:25:29;;;;;;;5.50;1.00;;;20.80;99.90;;;;;;4954038;29;20469;-69
2022/09/12 10:27:59;;;;;;;1.00;1.00;;;20.80;99.90;;;;;;4954368;28;20476;-69
2022/09/12 10:30:27;;;;;;;0.87;0.87;;;20.80;99.90;;;;;;4955236;28;20557;-69
2022/09/12 10:33:04;;;;;;;0.70;0.70;;;20.80;99.90;;;;;;4954941;28;20492;-69
2022/09/12 10:35:42;;;;;;;1.00;1.00;;;20.90;99.90;;;;;;4955215;28;21028;-69
2022/09/12 10:38:18;;;;;;;0.83;0.83;;;20.90;99.90;;;;;;4946532;28;20486;-69
2022/09/12 10:40:44;;;;;;;0.93;0.50;;;21.00;99.90;;;;;;4945965;28;20495;-69
2022/09/12 10:43:25;;;;;;;0.80;0.80;;;21.00;99.90;;;;;;4950461;29;20950;-69
2022/09/12 10:45:57;;;;;;;0.50;0.50;;;21.10;99.90;;;;;;4954926;28;20461;-69
2022/09/12 10:48:28;;;;;;;0.63;0.63;;;21.20;99.90;;;;;;4954798;28;20474;-69
2022/09/12 10:50:55;;;;;;;0.70;0.70;;;21.20;99.90;;;;;;4954470;28;20902;-69
2022/09/12 10:53:24;;;;;;;0.80;0.80;;;21.20;99.90;;;;;;4953347;28;20534;-69
2022/09/12 10:56:05;;;;;;;1.17;1.17;;;21.30;99.90;;;;;;4952400;28;20514;-69
2022/09/12 10:59:04;;;;;;;0.67;0.67;;;21.30;99.90;;;;;;4945987;28;20463;-68
2022/09/12 11:01:40;;;;;;;0.60;0.60;;;21.20;99.90;;;;;;4953853;29;20497;-68
2022/09/12 11:04:30;;;;;;;0.60;0.60;;;21.20;99.90;;;;;;4954409;28;20457;-69
2022/09/12 11:07:11;;;;;;;0.80;0.80;;;21.20;99.90;;;;;;4934913;29;20474;-69
2022/09/12 11:09:45;;;;;;;0.80;0.80;;;21.30;99.90;;;;;;4935121;29;20474;-68
2022/09/12 11:12:19;;;;;;;0.60;0.60;;;21.30;99.90;;;;;;4943696;28;20485;-68
2022/09/12 11:15:00;;;;;;;0.70;0.70;;;21.30;99.90;;;;;;4934859;29;20491;-69
2022/09/12 11:17:40;;;;;;;0.60;0.60;;;21.30;99.90;;;;;;4935106;29;20514;-69
2022/09/12 11:20:25;;;;;;;0.70;0.70;;;21.50;99.90;;;;;;4935235;29;20504;-66
2022/09/12 11:23:23;;;;;;;0.60;0.60;;;21.50;99.90;;;;;;4933896;29;20451;-68
2022/09/12 11:25:56;;;;;;;0.70;0.70;;;21.60;99.90;;;;;;4934990;29;20812;-69
2022/09/12 11:28:34;;;;;;;0.70;0.70;;;21.60;99.90;;;;;;4950435;28;20474;-69
2022/09/12 11:31:17;;;;;;;0.67;0.67;;;21.70;99.90;;;;;;4935724;29;20578;-69
2022/09/12 11:33:47;;;;;;;1.80;0.93;;;21.80;99.90;;;;;;4937947;29;20468;-67
2022/09/12 11:36:27;;;;;;;0.63;0.63;;;21.90;99.90;;;;;;4938338;29;20496;-67
2022/09/12 11:39:04;;;;;;;0.63;0.63;;;21.90;99.90;;;;;;4935958;29;20452;-67
2022/09/12 11:41:34;;;;;;;0.70;0.70;;;21.80;99.90;;;;;;4935804;29;20495;-67
2022/09/12 11:44:09;;;;;;;0.60;0.60;;;21.90;99.90;;;;;;4936712;28;20478;-69
2022/09/12 11:46:38;;;;;;;0.77;0.77;;;22.00;99.90;;;;;;4949919;28;20468;-69
2022/09/12 11:49:18;;;;;;;0.67;0.67;;;22.10;99.90;;;;;;4949118;29;20464;-69
2022/09/12 11:51:51;;;;;;;0.70;0.70;;;22.00;99.90;;;;;;4953048;28;20557;-69
2022/09/12 11:54:24;;;;;;;0.90;0.90;;;22.00;99.90;;;;;;4952840;28;20498;-69
2022/09/12 11:56:59;;;;;;;0.70;0.70;;;22.00;99.90;;;;;;4953206;28;20550;-70
2022/09/12 11:59:35;;;;;;;0.93;0.93;;;22.00;99.90;;;;;;4952496;28;20477;-67
2022/09/12 12:02:03;;;;;;;0.73;0.73;;;22.00;99.90;;;;;;4947355;28;20498;-68
2022/09/12 12:04:41;;;;;;;1.80;0.80;;;22.10;99.90;;;;;;4945073;28;20479;-67
2022/09/12 12:07:11;;;;;;;0.43;0.43;;;22.10;99.90;;;;;;4953196;28;20470;-68
2022/09/12 12:09:46;;;;;;;0.53;0.53;;;22.20;99.90;;;;;;4953513;28;20474;-70
2022/09/12 12:12:18;;;;;;;0.60;0.60;;;22.20;99.90;;;;;;4952668;28;20871;-69
2022/09/12 12:14:49;;;;;;;0.60;0.60;;;22.30;99.90;;;;;;4953259;28;20972;-69
2022/09/12 12:17:17;;;;;;;0.57;0.57;;;22.30;99.90;;;;;;4943920;28;20472;-70
2022/09/12 12:19:46;;;;;;;0.70;0.63;;;22.40;99.90;;;;;;4941873;28;20463;-70
2022/09/12 12:22:17;;;;;;;0.70;0.70;;;22.40;99.90;;;;;;4933793;29;20917;-69
2022/09/12 12:25:24;;;;;;;0.70;0.70;;;22.50;99.90;;;;;;4935216;29;20563;-69
2022/09/12 12:27:57;;;;;;;0.70;0.70;;;22.60;99.90;;;;;;4875233;29;20548;-69
2022/09/12 12:31:02;;;;;;;0.80;0.80;;;22.60;99.90;;;;;;4928022;29;20829;-70
2022/09/12 12:33:53;;;;;;;0.70;0.70;;;22.60;99.90;;;;;;4939414;28;20486;-69
2022/09/12 12:36:39;;;;;;;0.90;0.90;;;22.60;99.90;;;;;;4946819;28;20491;-69
2022/09/12 12:39:46;;;;;;;0.87;0.87;;;22.60;99.90;;;;;;4954776;28;20468;-69
2022/09/12 12:43:04;;;;;;;1.00;1.00;;;22.80;99.90;;;;;;4956298;28;20839;-69
2022/09/12 12:46:06;;;;;;;0.83;0.83;;;22.90;99.90;;;;;;4940839;28;20484;-69
2022/09/12 12:48:44;;;;;;;1.00;1.00;;;22.80;99.90;;;;;;4959164;28;20476;-70
2022/09/12 12:51:50;;;;;;;0.80;0.80;;;22.70;99.90;;;;;;4947645;28;20859;-70
2022/09/12 12:54:53;;;;;;;0.70;0.70;;;22.70;99.90;;;;;;4935336;29;20487;-69
2022/09/12 12:57:40;;;;;;;0.70;0.70;;;22.60;99.90;;;;;;4937514;29;20481;-69
2022/09/12 13:00:24;;;;;;;0.80;0.80;;;22.70;99.90;;;;;;4935559;29;20464;-69
2022/09/12 13:02:57;;;;;;;0.73;0.73;;;22.80;99.90;;;;;;4936832;29;20471;-70
2022/09/12 13:05:26;;;;;;;0.90;0.90;;;22.70;99.90;;;;;;4939467;29;20518;-69
2022/09/12 13:07:56;;;;;;;0.90;0.90;;;22.70;99.90;;;;;;4946959;28;20664;-68
2022/09/12 13:10:28;;;;;;;0.60;0.60;;;22.70;99.90;;;;;;4939772;28;20460;-67
2022/09/12 13:12:57;;;;;;;0.77;0.77;;;22.70;99.90;;;;;;4936983;29;20468;-68
2022/09/12 13:15:49;;;;;;;0.90;0.90;;;22.80;99.90;;;;;;4937178;29;20493;-67
2022/09/12 13:18:22;;;;;;;0.60;0.60;;;22.80;99.90;;;;;;4937067;29;20468;-67
2022/09/12 13:20:53;;;;;;;0.80;0.80;;;22.70;99.90;;;;;;4942850;28;20847;-67
2022/09/12 13:23:26;;;;;;;3.83;1.27;;;22.70;99.90;;;;;;4947394;28;20478;-67
2022/09/12 13:25:54;;;;;;;0.87;0.87;;;22.70;99.90;;;;;;4956540;28;20806;-67
2022/09/12 13:28:23;;;;;;;0.57;0.57;;;22.80;99.90;;;;;;4955577;28;20464;-70
2022/09/12 13:30:58;;;;;;;0.80;0.80;;;22.70;99.90;;;;;;4950471;28;20499;-68
2022/09/12 13:33:33;;;;;;;0.60;0.60;;;22.80;99.90;;;;;;4953578;29;20463;-66
2022/09/12 13:36:33;;;;;;;0.50;0.50;;;22.80;99.90;;;;;;4955733;28;20490;-69
2022/09/12 13:39:12;;;;;;;0.80;0.80;;;22.80;99.90;;;;;;4945844;28;20468;-69
2022/09/12 13:41:55;;;;;;;0.80;0.80;;;22.80;99.90;;;;;;4955616;28;20570;-68
2022/09/12 13:44:25;;;;;;;0.67;0.67;;;22.80;99.90;;;;;;4948100;28;20477;-68
2022/09/12 13:46:52;;;;;;;0.77;0.77;;;22.90;99.90;;;;;;4936522;29;20827;-69
2022/09/12 13:49:25;;;;;;;0.40;0.40;;;22.90;99.90;;;;;;4936467;29;20950;-68
2022/09/12 13:51:59;;;;;;;1.00;1.00;;;23.00;99.90;;;;;;4936317;29;20582;-68
2022/09/12 13:54:26;;;;;;;0.63;0.63;;;23.00;99.90;;;;;;4943323;28;20471;-69
2022/09/12 13:56:53;;;;;;;0.70;0.70;;;22.90;99.90;;;;;;4950053;28;20484;-68
2022/09/12 13:59:20;;;;;;;0.90;0.90;;;22.90;99.90;;;;;;4953087;29;20464;-68
2022/09/12 14:01:49;;;;;;;0.67;0.60;;;22.90;99.90;;;;;;4955066;28;20522;-69
2022/09/12 14:07:11;;;;;;;0.70;0.70;;;22.90;99.90;;;;;;4954284;28;20462;-68
2022/09/12 14:09:41;;;;;;;0.60;0.60;;;22.90;99.90;;;;;;4947415;28;20467;-68
2022/09/12 14:12:19;;;;;;;0.70;0.70;;;23.00;99.90;;;;;;4955031;28;20492;-68
2022/09/12 14:14:49;;;;;;;0.80;0.80;;;23.00;99.90;;;;;;4954597;28;20868;-68
2022/09/12 14:17:23;;;;;;;1.03;1.03;;;23.00;99.90;;;;;;4955077;28;20952;-68
2022/09/12 14:19:51;;;;;;;0.77;0.77;;;22.90;99.90;;;;;;4955443;28;20534;-68
2022/09/12 14:22:17;;;;;;;0.90;0.90;;;22.90;99.90;;;;;;4954933;28;20522;-68
2022/09/12 14:24:50;;;;;;;0.90;0.90;;;22.80;99.90;;;;;;4945785;28;20482;-68
2022/09/12 14:27:18;;;;;;;1.03;1.03;;;22.80;99.90;;;;;;4938633;28;20953;-69
2022/09/12 14:29:46;;;;;;;0.93;0.93;;;22.70;99.90;;;;;;4936314;29;20527;-69
2022/09/12 14:32:23;;;;;;;0.97;0.73;;;22.70;99.90;;;;;;4935782;29;20997;-69
2022/09/12 14:35:16;;;;;;;0.83;0.83;;;22.50;99.90;;;;;;4937368;29;20526;-69
2022/09/12 14:37:44;;;;;;;0.70;0.70;;;22.50;99.90;;;;;;4942353;28;20488;-69
2022/09/12 14:40:17;;;;;;;1.00;1.00;;;22.50;99.90;;;;;;4947776;28;20463;-69
2022/09/12 14:42:45;;;;;;;0.73;0.73;;;22.40;99.90;;;;;;4954860;28;20466;-68
2022/09/12 14:45:17;;;;;;;0.70;0.70;;;22.50;99.90;;;;;;4955285;28;20471;-69
2022/09/12 14:47:50;;;;;;;0.90;0.90;;;22.50;99.90;;;;;;4955461;28;20478;-69
2022/09/12 14:50:18;;;;;;;0.90;0.90;;;22.60;99.90;;;;;;4954869;28;20530;-69
2022/09/12 14:52:45;;;;;;;0.87;0.87;;;22.70;99.90;;;;;;4954750;28;20474;-69
2022/09/12 14:55:29;;;;;;;0.80;0.80;;;22.70;99.90;;;;;;4947781;28;20491;-69
2022/09/12 14:58:14;;;;;;;0.70;0.70;;;22.80;99.90;;;;;;4950861;29;20496;-69
2022/09/12 15:00:53;;;;;;;0.70;0.70;;;22.90;99.90;;;;;;4956320;28;20505;-69
2022/09/12 15:03:27;;;;;;;1.60;1.60;;;22.80;99.90;;;;;;4956124;28;20816;-69
2022/09/12 15:05:54;;;;;;;0.73;0.73;;;22.70;99.90;;;;;;4943633;28;20836;-69
2022/09/12 15:08:21;;;;;;;0.80;0.80;;;22.70;99.90;;;;;;4943235;28;20501;-69
2022/09/12 15:10:48;;;;;;;1.07;1.07;;;22.60;99.90;;;;;;4949467;28;20502;-68
2022/09/12 15:13:18;;;;;;;1.03;1.03;;;22.50;99.90;;;;;;4956933;28;20555;-69
2022/09/12 15:15:47;;;;;;;0.93;0.93;;;22.50;99.90;;;;;;4956738;28;20858;-69
2022/09/12 15:18:14;;;;;;;1.43;1.43;;;22.40;99.90;;;;;;4957517;28;20494;-69
2022/09/12 15:20:44;;;;;;;0.87;0.87;;;22.30;99.90;;;;;;4955445;28;21032;-69
2022/09/12 15:23:17;;;;;;;0.90;0.90;;;22.30;99.90;;;;;;4954014;28;20927;-68
2022/09/12 15:25:44;;;;;;;1.30;1.30;;;22.20;99.90;;;;;;4945715;28;20481;-68
2022/09/12 15:28:17;;;;;;;1.00;1.00;;;22.10;99.90;;;;;;4939957;28;20544;-68
2022/09/12 15:30:44;;;;;;;1.40;1.40;;;22.10;99.90;;;;;;4939984;29;20487;-68
2022/09/12 15:33:11;;;;;;;1.30;1.30;;;22.10;99.90;;;;;;4938383;29;20485;-68
2022/09/12 15:35:38;;;;;;;1.43;1.43;;;22.10;99.90;;;;;;4935866;29;20502;-67
2022/09/12 15:38:06;;;;;;;1.60;1.60;;;22.10;99.90;;;;;;4934277;29;20483;-68
2022/09/12 15:40:33;;;;;;;1.67;1.67;;;22.10;99.90;;;;;;4935120;28;20467;-68
2022/09/12 15:43:00;;;;;;;1.00;1.00;;;22.10;99.90;;;;;;4945673;28;20462;-69
2022/09/12 15:45:29;;;;;;;1.20;1.20;;;22.10;99.90;;;;;;4941981;28;20589;-68
2022/09/12 15:47:56;;;;;;;1.70;1.70;;;22.10;99.90;;;;;;4942377;29;20474;-68
2022/09/12 15:50:23;;;;;;;1.60;1.60;;;22.00;99.90;;;;;;4935172;29;20467;-69
2022/09/12 15:52:50;;;;;;;1.90;1.90;;;22.00;99.90;;;;;;4934437;29;20486;-68
2022/09/12 15:55:20;;;;;;;1.70;1.70;;;21.90;99.90;;;;;;4933901;29;20987;-69
2022/09/12 15:57:47;;;;;;;1.70;1.70;;;22.00;99.90;;;;;;4934114;29;20468;-69
2022/09/12 16:00:14;;;;;;;1.60;1.60;;;22.00;99.90;;;;;;4942656;28;20496;-68
2022/09/12 16:02:41;;;;;;;1.63;1.63;;;22.10;99.90;;;;;;4945742;29;20462;-68
2022/09/12 16:05:17;;;;;;;1.43;1.43;;;22.20;99.90;;;;;;4953686;28;20469;-68
2022/09/12 16:07:44;;;;;;;1.30;1.30;;;22.30;99.90;;;;;;4953139;28;20474;-68
2022/09/12 16:10:15;;;;;;;1.63;1.63;;;22.30;99.90;;;;;;4953258;28;20859;-68
2022/09/12 16:12:44;;;;;;;1.40;1.40;;;22.30;99.90;;;;;;4952828;28;20842;-69
2022/09/12 16:15:17;;;;;;;1.90;1.90;;;22.40;99.90;;;;;;4952797;28;20473;-68
2022/09/12 16:17:44;;;;;;;1.47;1.47;;;22.50;99.90;;;;;;4947863;29;20486;-69
2022/09/12 16:20:12;;;;;;;1.87;1.73;;;22.40;99.90;;;;;;4934244;29;20836;-68
2022/09/12 16:22:39;;;;;;;1.57;1.57;;;22.40;99.90;;;;;;4933211;29;20494;-68
2022/09/12 16:25:07;;;;;;;1.87;1.77;;;22.30;99.90;;;;;;4934201;29;20475;-68
2022/09/12 16:27:34;;;;;;;1.63;1.63;;;22.20;99.90;;;;;;4933592;29;20511;-68
2022/09/12 16:30:03;;;;;;;1.63;1.53;;;22.10;99.90;;;;;;4933948;29;20467;-69
2022/09/12 16:32:30;;;;;;;1.33;1.33;;;22.00;99.90;;;;;;4937787;28;20487;-69
2022/09/12 16:34:57;;;;;;;1.70;1.60;;;22.00;99.90;;;;;;4946565;28;20488;-68
2022/09/12 16:37:24;;;;;;;1.80;1.80;;;21.90;99.90;;;;;;4944294;28;20497;-68
2022/09/12 16:39:51;;;;;;;1.27;1.27;;;21.90;99.90;;;;;;4954185;28;20818;-69
2022/09/12 16:42:18;;;;;;;1.47;1.47;;;21.80;99.90;;;;;;4952299;28;20486;-69
2022/09/12 16:44:45;;;;;;;1.87;1.80;;;21.80;99.90;;;;;;4952501;28;20575;-69
2022/09/12 16:47:14;;;;;;;1.17;1.17;;;21.70;99.90;;;;;;4952735;28;20807;-68
2022/09/12 16:49:41;;;;;;;1.33;1.33;;;21.60;99.90;;;;;;4948994;28;20841;-69
2022/09/12 16:52:08;;;;;;;1.30;1.30;;;21.50;99.90;;;;;;4941182;29;20509;-67
2022/09/12 16:54:35;;;;;;;1.73;1.63;;;21.40;99.90;;;;;;4933058;29;20554;-69
2022/09/12 16:57:04;;;;;;;1.20;1.20;;;21.30;99.90;;;;;;4932858;29;20495;-69
2022/09/12 16:59:30;;;;;;;1.23;1.23;;;21.20;99.90;;;;;;4933235;29;20485;-69
2022/09/12 17:01:57;;;;;;;1.60;1.60;;;21.20;99.90;;;;;;4933249;29;20501;-69
2022/09/12 17:04:25;;;;;;;1.70;1.70;;;21.10;99.90;;;;;;4933271;29;20603;-69
2022/09/12 17:06:52;;;;;;;1.40;1.40;;;21.00;99.90;;;;;;4943371;28;20494;-68
2022/09/12 17:09:19;;;;;;;1.83;1.83;;;20.90;99.90;;;;;;4935737;28;20956;-68
2022/09/12 17:11:48;;;;;;;1.50;1.50;;;20.80;99.90;;;;;;4932731;29;20493;-69